Beaukiss, Texas
Current Conditions -  °F | °C
As of 12:15 PM on Monday 26 Jan 2015 (Local Time) from KEDC Reporting Station
Clear Clear  
Wind Chill: 66°   Ceiling: Unl
Heat Index: 66°   Visibility: 10mi
Dew Point: 36°   Wind: 5mph
Humidity: 32%   Direction: 320°NW
Pressure: 30.25"   Gusts: NA
Location:  30.2988°N, 97.3874°W
Report Text: KEDC 261815Z AUTO 32004KT 10SM CLR 19/02 A3025 RMK AO2
Loading
Personal Weather Stations






























Interactive Weather Map New forecast layout! Learn more

10-Day Weather Forecast

Advertisements
Track Severe Weather on mobile